Time;durP1;ratioP1;P1;durP2;ratioP2;P2;SDS_P1;SDS_P2;PMS_P1;PMS_P2;Temp;Humidity;BMP_temperature;BMP_pressure;BME280_temperature;BME280_humidity;BME280_pressure;Samples;Min_cycle;Max_cycle;Signal;HPM_P1;HPM_P2
2022/08/15 00:00:12;;;;;;;14.38;9.80;;;;;;;22.48;49.40;100063.59;5011403;28;20052;-71
2022/08/15 00:02:52;;;;;;;16.52;10.18;;;;;;;22.43;49.73;100067.06;5011225;28;20478;-71
2022/08/15 00:05:30;;;;;;;21.35;10.43;;;;;;;22.41;49.77;100062.94;5010836;28;20046;-72
2022/08/15 00:08:03;;;;;;;15.73;10.18;;;;;;;22.50;50.00;100061.44;5011202;28;20080;-72
2022/08/15 00:10:50;;;;;;;16.15;10.05;;;;;;;22.41;50.50;100058.28;5010093;28;20057;-71
2022/08/15 00:13:37;;;;;;;16.73;10.18;;;;;;;22.52;50.04;100059.25;5012351;28;20504;-72
2022/08/15 00:16:09;;;;;;;15.88;10.13;;;;;;;22.53;49.60;100063.63;5011388;28;20062;-71
2022/08/15 00:18:44;;;;;;;16.00;10.07;;;;;;;22.56;49.24;100063.94;5012533;28;20439;-72
2022/08/15 00:21:11;;;;;;;17.67;10.43;;;;;;;22.54;50.46;100057.13;5010940;28;20064;-71
2022/08/15 00:23:40;;;;;;;14.77;10.13;;;;;;;22.54;50.62;100065.31;5011571;28;20133;-72
2022/08/15 00:26:08;;;;;;;13.40;9.50;;;;;;;22.43;50.55;100053.41;5012051;28;20121;-71
2022/08/15 00:28:49;;;;;;;16.27;10.70;;;;;;;22.40;51.00;100061.28;5010677;28;20052;-71
2022/08/15 00:31:24;;;;;;;19.35;11.23;;;;;;;22.41;51.10;100068.41;5011714;28;20046;-72
2022/08/15 00:34:09;;;;;;;15.20;10.50;;;;;;;22.29;50.93;100069.38;5005844;28;20482;-72
2022/08/15 00:36:55;;;;;;;24.95;11.50;;;;;;;22.39;51.13;100059.63;5010754;28;20052;-72
2022/08/15 00:39:25;;;;;;;14.63;10.48;;;;;;;22.36;51.12;100057.38;5010593;28;20136;-72
2022/08/15 00:42:00;;;;;;;16.20;11.07;;;;;;;22.32;51.00;100057.94;5011738;28;20132;-72
2022/08/15 00:44:40;;;;;;;18.52;11.10;;;;;;;22.00;51.68;100065.13;5010241;28;20137;-72
2022/08/15 00:47:27;;;;;;;15.60;10.95;;;;;;;22.20;52.01;100065.41;5010804;28;20591;-73
2022/08/15 00:49:58;;;;;;;19.85;11.10;;;;;;;22.08;52.06;100070.16;5011585;28;20096;-71
2022/08/15 00:52:30;;;;;;;20.92;11.85;;;;;;;22.07;51.39;100058.41;5011538;28;20132;-72
2022/08/15 00:55:17;;;;;;;13.57;10.05;;;;;;;21.85;52.53;100061.09;5010405;28;20053;-71
2022/08/15 00:57:48;;;;;;;18.75;11.13;;;;;;;21.86;51.71;100061.94;5011742;28;20397;-71
2022/08/15 01:00:42;;;;;;;15.88;10.98;;;;;;;21.96;52.23;100064.00;5011324;28;20056;-72
2022/08/15 01:03:16;;;;;;;20.48;10.82;;;;;;;21.75;52.66;100066.38;5011276;28;20069;-73
2022/08/15 01:09:11;;;;;;;16.45;11.18;;;;;;;21.77;53.18;100053.31;5010544;28;20375;-72
2022/08/15 01:11:48;;;;;;;16.38;11.10;;;;;;;21.91;52.75;100055.72;5011579;28;20061;-72
2022/08/15 01:14:16;;;;;;;14.35;9.90;;;;;;;21.91;51.86;100050.25;5009853;28;20058;-72
2022/08/15 01:17:05;;;;;;;17.67;10.45;;;;;;;22.00;52.06;100046.84;4991505;28;20042;-72
2022/08/15 01:19:53;;;;;;;14.95;10.05;;;;;;;22.06;51.95;100040.38;4995609;28;20042;-72
2022/08/15 01:22:23;;;;;;;19.52;11.10;;;;;;;21.95;52.83;100043.22;4995068;28;20074;-72
2022/08/15 01:24:59;;;;;;;17.83;11.23;;;;;;;22.02;52.15;100046.59;4988488;28;20049;-72
2022/08/15 01:27:55;;;;;;;16.48;10.73;;;;;;;21.99;52.49;100045.19;4994984;28;20045;-72
2022/08/15 01:30:26;;;;;;;17.40;11.57;;;;;;;22.02;52.41;100039.22;4994696;28;20081;-72
2022/08/15 01:33:14;;;;;;;13.13;10.60;;;;;;;22.06;52.57;100040.38;4993928;28;20500;-72
2022/08/15 01:35:45;;;;;;;16.90;10.80;;;;;;;22.03;52.54;100046.34;4994508;28;20077;-72
2022/08/15 01:38:30;;;;;;;13.52;9.70;;;;;;;22.02;52.39;100041.13;4994931;28;20093;-72
2022/08/15 01:41:27;;;;;;;13.52;10.55;;;;;;;22.03;52.81;100045.50;4994736;28;20054;-72
2022/08/15 01:44:28;;;;;;;14.93;11.10;;;;;;;22.02;52.54;100050.16;4994227;28;20050;-72
2022/08/15 01:47:12;;;;;;;14.57;10.45;;;;;;;21.91;52.92;100042.06;4994623;28;20050;-72
2022/08/15 01:50:07;;;;;;;15.07;10.32;;;;;;;21.92;53.15;100038.25;4995786;28;20470;-72
2022/08/15 01:53:13;;;;;;;14.80;11.20;;;;;;;21.76;53.77;100037.19;4992988;28;20034;-72
2022/08/15 01:55:52;;;;;;;14.52;10.52;;;;;;;21.68;53.75;100043.06;4994333;28;20461;-72
2022/08/15 01:58:21;;;;;;;18.00;11.45;;;;;;;21.74;53.76;100040.19;4989160;28;20057;-72
2022/08/15 02:00:55;;;;;;;16.80;11.23;;;;;;;21.79;53.74;100050.34;4994532;28;20129;-72
2022/08/15 02:03:33;;;;;;;16.17;11.18;;;;;;;21.71;53.58;100046.13;4994055;28;20137;-72
2022/08/15 02:06:20;;;;;;;21.85;11.15;;;;;;;21.51;54.46;100043.09;4988412;28;20133;-72
2022/08/15 02:08:52;;;;;;;15.82;11.27;;;;;;;21.47;54.69;100042.75;4993349;28;20042;-72
2022/08/15 02:11:21;;;;;;;14.20;11.40;;;;;;;21.40;55.14;100046.75;4992943;28;20050;-72
2022/08/15 02:13:54;;;;;;;15.30;11.68;;;;;;;21.42;54.18;100050.03;4993652;28;20046;-72
2022/08/15 02:16:27;;;;;;;18.60;11.10;;;;;;;21.44;54.82;100043.25;5009797;28;20049;-72
2022/08/15 02:18:54;;;;;;;18.63;11.85;;;;;;;21.42;54.98;100042.66;5012653;28;20077;-72
2022/08/15 02:21:26;;;;;;;15.20;11.80;;;;;;;21.45;55.00;100038.63;5012619;28;20045;-72
2022/08/15 02:24:06;;;;;;;19.45;12.02;;;;;;;21.35;55.05;100031.91;5011460;28;20441;-72
2022/08/15 02:26:48;;;;;;;15.82;12.27;;;;;;;21.18;55.77;100035.72;5011769;28;20133;-72
2022/08/15 02:29:18;;;;;;;18.08;11.52;;;;;;;20.95;56.58;100028.50;5011394;28;20054;-72
2022/08/15 02:31:51;;;;;;;16.38;12.88;;;;;;;20.98;56.65;100022.56;5012203;28;20096;-72
2022/08/15 02:34:18;;;;;;;16.95;11.23;;;;;;;20.92;56.74;100016.19;5013163;28;20096;-72
2022/08/15 02:36:45;;;;;;;17.23;12.60;;;;;;;20.89;56.95;100022.13;5012563;28;20142;-72
2022/08/15 02:39:19;;;;;;;15.82;12.63;;;;;;;20.87;56.77;100019.66;5011845;28;20052;-72
2022/08/15 02:41:50;;;;;;;16.55;12.13;;;;;;;20.87;56.67;100019.66;5013154;28;20096;-72
2022/08/15 02:44:21;;;;;;;15.38;12.50;;;;;;;20.89;57.04;100025.66;5013499;28;20128;-72
2022/08/15 02:46:51;;;;;;;17.08;11.82;;;;;;;20.98;56.98;100028.00;5013778;28;20046;-72
2022/08/15 02:49:33;;;;;;;21.38;12.80;;;;;;;20.95;56.88;100021.16;5012976;28;20408;-72
2022/08/15 02:52:07;;;;;;;15.70;12.23;;;;;;;21.09;56.32;100008.00;5010694;28;20056;-72
2022/08/15 02:54:47;;;;;;;17.42;12.43;;;;;;;20.97;56.70;100018.97;5013437;28;20050;-72
2022/08/15 02:57:26;;;;;;;16.35;12.27;;;;;;;20.86;57.09;100022.59;5012024;28;20046;-72
2022/08/15 02:59:53;;;;;;;16.80;11.52;;;;;;;20.96;57.14;100019.25;5012350;28;20072;-72
2022/08/15 03:02:19;;;;;;;17.05;13.02;;;;;;;20.76;57.46;100009.63;5013127;28;20074;-72
2022/08/15 03:04:54;;;;;;;16.05;12.52;;;;;;;20.82;57.28;100008.63;5012784;28;20413;-72
2022/08/15 03:07:21;;;;;;;21.48;12.88;;;;;;;20.74;57.67;100009.06;5012556;28;20442;-72
2022/08/15 03:09:48;;;;;;;18.92;13.50;;;;;;;20.72;58.02;100013.91;5013062;28;20070;-72
2022/08/15 03:12:23;;;;;;;15.88;13.27;;;;;;;20.70;58.14;100009.75;5011924;28;20053;-72
2022/08/15 03:14:59;;;;;;;17.58;13.45;;;;;;;20.58;58.53;100024.28;5011912;28;20052;-72
2022/08/15 03:17:28;;;;;;;17.80;13.65;;;;;;;20.54;58.89;100017.66;5012718;28;20050;-72
2022/08/15 03:19:55;;;;;;;16.15;13.82;;;;;;;20.39;59.11;100011.91;5010280;28;20408;-72
2022/08/15 03:22:21;;;;;;;16.65;13.63;;;;;;;20.24;59.81;100009.69;5011785;28;20061;-72
2022/08/15 03:25:09;;;;;;;19.85;14.35;;;;;;;20.33;59.87;100008.25;5012038;28;20053;-72
2022/08/15 03:27:36;;;;;;;21.85;14.68;;;;;;;20.28;59.96;100007.31;5012582;28;20070;-71
2022/08/15 03:30:07;;;;;;;17.77;13.60;;;;;;;20.33;59.89;100005.50;5011915;28;20052;-71
2022/08/15 03:32:53;;;;;;;16.73;14.73;;;;;;;20.31;60.22;100002.19;5011700;28;20081;-71
2022/08/15 03:35:22;;;;;;;19.45;13.77;;;;;;;20.22;60.45;100000.94;5008306;28;20072;-71
2022/08/15 03:37:54;;;;;;;19.27;13.38;;;;;;;20.20;60.32;99994.91;5011261;28;20050;-71
2022/08/15 03:40:32;;;;;;;18.02;13.85;;;;;;;20.27;60.04;99992.84;5010736;28;20442;-72
2022/08/15 03:43:04;;;;;;;22.95;14.15;;;;;;;20.12;60.22;99989.84;5011494;28;20048;-72
2022/08/15 03:45:43;;;;;;;21.88;14.75;;;;;;;20.16;60.50;99986.38;5010959;28;20482;-71
2022/08/15 03:48:11;;;;;;;22.23;14.77;;;;;;;20.12;60.27;99987.94;5011557;28;20128;-72
2022/08/15 03:50:51;;;;;;;21.75;15.45;;;;;;;19.99;61.07;99988.22;5010386;28;20044;-71
2022/08/15 03:53:30;;;;;;;16.25;14.45;;;;;;;20.08;60.75;99994.94;5010387;28;20378;-72
2022/08/15 03:55:58;;;;;;;19.45;14.80;;;;;;;20.02;61.09;99985.00;5010515;28;20045;-72
2022/08/15 03:58:28;;;;;;;17.02;14.27;;;;;;;20.04;60.82;99988.31;5011707;28;20122;-71
2022/08/15 04:01:07;;;;;;;23.77;16.50;;;;;;;19.93;61.76;99983.72;5011307;28;20129;-71
2022/08/15 04:03:39;;;;;;;22.35;15.45;;;;;;;20.02;61.26;99982.28;5011525;28;20049;-72
2022/08/15 04:06:09;;;;;;;24.45;15.95;;;;;;;19.99;61.42;99988.22;5011016;28;20132;-72
2022/08/15 04:08:45;;;;;;;21.95;13.65;;;;;;;20.06;60.50;99994.34;5011061;28;20056;-72
2022/08/15 04:11:32;;;;;;;20.60;15.68;;;;;;;20.25;60.10;99986.84;5011316;28;20046;-72
2022/08/15 04:14:02;;;;;;;26.08;15.00;;;;;;;20.20;60.19;99993.00;5011309;28;20096;-70
2022/08/15 04:16:29;;;;;;;23.50;15.18;;;;;;;20.10;60.47;99994.69;5008930;28;20048;-70
2022/08/15 04:19:16;;;;;;;24.05;14.80;;;;;;;19.96;60.92;99994.94;4941783;28;20047;-71
2022/08/15 04:21:45;;;;;;;21.90;14.32;;;;;;;20.11;60.37;99990.91;4950780;28;20106;-69
2022/08/15 04:24:16;;;;;;;20.63;14.97;;;;;;;20.11;60.23;99990.91;4951976;28;20051;-71
2022/08/15 04:26:53;;;;;;;23.95;16.00;;;;;;;20.00;60.82;99983.59;4948976;28;20553;-72
2022/08/15 04:29:21;;;;;;;21.50;15.63;;;;;;;20.00;61.04;99984.41;4952099;28;20410;-70
2022/08/15 04:31:48;;;;;;;24.73;15.00;;;;;;;20.07;60.51;99987.00;4951250;28;20130;-70
2022/08/15 04:34:20;;;;;;;27.90;16.60;;;;;;;19.90;61.36;99986.91;4945185;28;20058;-70
2022/08/15 04:37:06;;;;;;;27.55;17.15;;;;;;;19.99;61.14;99979.22;4951084;28;20053;-71
2022/08/15 04:39:38;;;;;;;;;;;;;;;19.99;61.33;99985.47;4953110;28;20046;-70
2022/08/15 04:42:06;;;;;;;22.77;16.65;;;;;;;19.83;61.80;99984.34;4951044;28;19931;-70
2022/08/15 04:44:35;;;;;;;22.58;16.75;;;;;;;19.88;61.74;99987.16;4951334;28;20388;-70
2022/08/15 04:47:04;;;;;;;28.35;17.63;;;;;;;20.02;61.26;99993.19;4950050;28;20057;-70
2022/08/15 04:49:30;;;;;;;28.20;16.67;;;;;;;19.84;61.76;99985.19;4959841;28;20120;-70
2022/08/15 04:52:09;;;;;;;22.13;16.92;;;;;;;20.01;61.38;99990.72;5010892;28;20042;-70
2022/08/15 04:54:36;;;;;;;29.52;17.55;;;;;;;19.94;61.76;99990.84;5011376;28;25226;-70
2022/08/15 04:57:03;;;;;;;23.35;16.58;;;;;;;20.02;61.21;99987.72;5010929;28;20076;-71
2022/08/15 04:59:29;;;;;;;24.77;16.45;;;;;;;20.03;61.35;99994.00;5009629;28;20128;-70
2022/08/15 05:02:05;;;;;;;26.02;17.02;;;;;;;20.10;60.98;99995.50;5006096;28;20409;-70
2022/08/15 05:04:52;;;;;;;22.02;16.85;;;;;;;20.07;61.44;99985.09;5010484;28;20494;-71
2022/08/15 05:07:19;;;;;;;23.65;16.55;;;;;;;20.40;60.25;99991.78;5010906;28;20137;-71
2022/08/15 05:09:45;;;;;;;22.65;15.95;;;;;;;20.35;60.71;99995.22;5011523;28;20046;-71
2022/08/15 05:12:29;;;;;;;29.50;17.02;;;;;;;20.51;60.28;99990.91;5010833;28;20056;-71
2022/08/15 05:15:01;;;;;;;23.15;16.27;;;;;;;20.52;60.26;99980.81;5010884;28;20133;-71
2022/08/15 05:17:28;;;;;;;32.83;16.58;;;;;;;20.54;60.14;99984.97;5011208;28;20053;-71
2022/08/15 05:20:17;;;;;;;21.65;17.02;;;;;;;20.56;60.11;99985.56;5011423;28;20050;-71
2022/08/15 05:23:04;;;;;;;20.73;15.20;;;;;;;20.66;59.96;99995.78;5011997;28;20121;-71
2022/08/15 05:25:35;;;;;;;27.05;17.63;;;;;;;20.84;58.77;99998.34;5010580;28;20073;-71
2022/08/15 05:28:09;;;;;;;22.83;16.92;;;;;;;21.07;58.68;99993.78;5010520;28;20076;-71
2022/08/15 05:30:58;;;;;;;22.67;16.48;;;;;;;20.94;58.94;99997.69;5010245;28;20046;-71
2022/08/15 05:33:33;;;;;;;32.40;15.65;;;;;;;21.12;57.85;99997.47;5010757;28;20050;-71
2022/08/15 05:36:20;;;;;;;24.45;13.80;;;;;;;21.37;56.87;100004.41;5004079;28;20046;-71
2022/08/15 05:39:01;;;;;;;22.75;13.93;;;;;;;21.77;55.66;99998.72;5011034;28;20404;-71
2022/08/15 05:41:52;;;;;;;38.30;14.95;;;;;;;21.65;57.07;99995.25;5010309;28;20049;-71
2022/08/15 05:44:24;;;;;;;25.55;14.60;;;;;;;21.47;57.59;99992.81;5010546;28;20058;-71
2022/08/15 05:47:26;;;;;;;;;;;;;;;21.37;57.61;100005.22;5011030;28;20057;-71
2022/08/15 05:50:00;;;;;;;22.73;15.05;;;;;;;21.27;58.27;100001.50;5010248;28;19929;-71
2022/08/15 05:52:40;;;;;;;18.58;13.82;;;;;;;21.38;57.30;99993.22;5010824;28;20050;-71
2022/08/15 05:55:35;;;;;;;19.85;15.02;;;;;;;21.26;58.21;99991.69;5000394;28;20074;-71
2022/08/15 05:58:20;;;;;;;33.45;14.48;;;;;;;21.51;57.23;99988.50;5010157;28;20108;-71
2022/08/15 06:01:28;;;;;;;26.20;14.48;;;;;;;21.72;57.21;99986.91;5010549;28;20049;-71
2022/08/15 06:04:21;;;;;;;19.60;14.63;;;;;;;21.71;57.18;99977.88;5010257;28;20130;-71
2022/08/15 06:06:58;;;;;;;17.05;13.60;;;;;;;21.64;56.61;99982.69;5006991;28;20053;-71
2022/08/15 06:09:38;;;;;;;20.20;13.07;;;;;;;21.62;56.77;99982.13;5013856;28;20133;-71
2022/08/15 06:12:23;;;;;;;18.83;13.57;;;;;;;21.64;56.37;99979.97;5013857;28;20054;-71
2022/08/15 06:14:59;;;;;;;23.88;13.15;;;;;;;21.94;55.11;99987.75;5013817;28;20046;-71
2022/08/15 06:17:42;;;;;;;13.50;11.65;;;;;;;21.96;54.93;99979.31;4997091;28;20052;-71
2022/08/15 06:20:13;;;;;;;16.50;13.35;;;;;;;21.88;55.31;99977.88;5014408;28;20072;-71
2022/08/15 06:23:30;;;;;;;18.30;13.27;;;;;;;21.77;55.99;99981.50;5013359;28;20042;-71
2022/08/15 06:26:10;;;;;;;15.20;11.90;;;;;;;21.89;55.26;99989.63;5014890;28;20406;-71
2022/08/15 06:29:09;;;;;;;16.50;11.68;;;;;;;21.82;55.99;99987.88;5011761;28;20063;-71
2022/08/15 06:31:39;;;;;;;22.20;12.73;;;;;;;22.04;54.77;99982.41;5014202;28;20092;-71
2022/08/15 06:34:44;;;;;;;14.40;11.35;;;;;;;22.09;54.90;99977.03;5013671;28;20049;-71
2022/08/15 06:37:34;;;;;;;42.05;13.57;;;;;;;22.18;55.38;99982.88;5012477;28;20046;-71
2022/08/15 06:40:39;;;;;;;17.52;13.27;;;;;;;22.07;55.53;99981.09;5013086;28;20397;-71
2022/08/15 06:43:07;;;;;;;18.60;13.60;;;;;;;22.26;55.02;99979.69;5012272;28;20121;-71
2022/08/15 06:45:38;;;;;;;21.90;12.32;;;;;;;22.36;54.08;99983.59;5012790;28;20133;-71
2022/08/15 06:48:23;;;;;;;21.90;13.40;;;;;;;22.52;54.43;99977.25;5013094;28;20117;-72
2022/08/15 06:51:11;;;;;;;22.70;12.95;;;;;;;22.75;53.92;99974.22;5013519;28;20370;-70
2022/08/15 06:53:52;;;;;;;24.85;13.32;;;;;;;22.95;53.99;99972.75;5015097;28;20149;-70
2022/08/15 06:56:46;;;;;;;18.80;12.98;;;;;;;22.89;53.32;99971.88;5015130;28;20577;-70
2022/08/15 06:59:40;;;;;;;21.67;12.90;;;;;;;23.01;52.49;99974.44;5014818;28;20046;-70
2022/08/15 07:02:57;;;;;;;21.75;12.95;;;;;;;23.28;52.61;99960.72;5013607;28;20100;-70
2022/08/15 07:05:34;;;;;;;16.45;12.57;;;;;;;22.88;52.99;99963.91;5003838;28;20049;-70
2022/08/15 07:08:08;;;;;;;16.73;12.13;;;;;;;23.19;52.70;99965.88;5016171;28;20152;-70
2022/08/15 07:10:56;;;;;;;13.95;11.90;;;;;;;23.52;52.09;99960.31;5013779;28;20072;-71
2022/08/15 07:13:37;;;;;;;18.45;12.27;;;;;;;23.65;51.87;99962.59;5012859;28;20137;-70
2022/08/15 07:16:30;;;;;;;13.02;10.43;;;;;;;23.91;50.09;99955.34;5011857;28;20046;-70
2022/08/15 07:19:00;;;;;;;18.23;11.30;;;;;;;24.09;50.31;99963.09;5012196;28;20106;-70
2022/08/15 07:21:27;;;;;;;18.70;14.27;;;;;;;24.06;50.33;99960.91;5012976;28;20401;-70
2022/08/15 07:24:37;;;;;;;15.43;10.65;;;;;;;24.29;49.22;99961.50;5012786;28;20045;-70
2022/08/15 07:27:05;;;;;;;;;;;;;;;24.53;48.26;99956.38;5013328;28;20367;-70
2022/08/15 07:29:49;;;;;;;12.88;10.00;;;;;;;24.96;47.28;99952.31;5012259;28;19921;-70
2022/08/15 07:32:51;;;;;;;11.82;9.98;;;;;;;24.66;47.50;99945.69;5011431;28;20052;-70
2022/08/15 07:35:25;;;;;;;17.90;9.60;;;;;;;25.53;45.24;99953.88;5012573;28;20054;-70
2022/08/15 07:37:56;;;;;;;12.95;9.85;;;;;;;26.07;44.54;99950.44;5012023;28;20100;-70
2022/08/15 07:40:23;;;;;;;13.95;9.95;;;;;;;25.67;45.11;99950.59;5012044;28;20449;-71
2022/08/15 07:42:57;;;;;;;14.02;9.07;;;;;;;25.76;45.09;99947.00;5011422;28;20053;-70
2022/08/15 07:45:46;;;;;;;12.50;9.32;;;;;;;25.74;44.56;99948.38;5012058;28;20041;-70
2022/08/15 07:48:29;;;;;;;11.80;8.77;;;;;;;26.00;43.94;99952.66;5012145;28;20138;-70
2022/08/15 07:51:37;;;;;;;11.63;9.07;;;;;;;25.73;44.72;99947.53;5011840;28;20112;-71
2022/08/15 07:54:51;;;;;;;10.18;9.07;;;;;;;25.46;44.85;99942.38;4970037;28;20077;-71
2022/08/15 07:57:29;;;;;;;10.65;8.75;;;;;;;25.41;45.15;99945.13;5006461;28;20129;-71
2022/08/15 08:00:28;;;;;;;12.18;9.00;;;;;;;26.24;43.73;99935.50;5011454;28;20474;-70
2022/08/15 08:03:15;;;;;;;15.55;9.57;;;;;;;26.31;43.18;99936.03;5011721;28;20092;-71
2022/08/15 08:06:03;;;;;;;20.80;9.30;;;;;;;25.79;44.31;99931.84;5011344;28;20375;-72
2022/08/15 08:09:01;;;;;;;12.02;9.00;;;;;;;25.34;44.48;99933.63;5010317;28;20052;-72
2022/08/15 08:11:44;;;;;;;15.75;8.80;;;;;;;25.92;43.65;99938.66;5013178;28;20050;-73
2022/08/15 08:14:15;;;;;;;11.10;8.15;;;;;;;29.73;35.64;99939.94;5011328;28;20052;-70
2022/08/15 08:17:30;;;;;;;12.70;7.32;;;;;;;32.29;31.19;99937.06;5010858;28;20050;-70
2022/08/15 08:20:30;;;;;;;9.50;7.53;;;;;;;33.33;28.71;99938.94;5011677;28;20053;-70
2022/08/15 08:23:08;;;;;;;10.48;6.63;;;;;;;34.11;27.61;99935.81;5011827;28;20521;-69
2022/08/15 08:25:56;;;;;;;8.48;7.55;;;;;;;34.35;27.34;99932.34;5010759;28;20065;-70
2022/08/15 08:28:49;;;;;;;18.20;7.38;;;;;;;34.42;27.88;99923.47;5008330;28;20052;-68
2022/08/15 08:31:28;;;;;;;9.75;6.72;;;;;;;35.74;25.55;99919.75;5012417;28;20065;-68
2022/08/15 08:34:10;;;;;;;16.27;7.68;;;;;;;35.04;26.57;99922.56;4993814;28;20084;-67
2022/08/15 08:37:24;;;;;;;16.88;6.93;;;;;;;35.35;26.38;99922.06;5011124;28;20377;-70
2022/08/15 08:41:24;;;;;;;9.93;6.70;;;;;;;35.70;25.59;99925.22;5011714;28;20120;-70
2022/08/15 08:42:52;;;;;;;9.63;6.78;;;;;;;35.51;26.01;99913.00;5011616;28;20100;-71
2022/08/15 08:45:37;;;;;;;8.02;6.97;;;;;;;35.82;25.15;99916.03;5011076;28;20768;-70
2022/08/15 08:48:15;;;;;;;13.95;6.30;;;;;;;35.06;25.93;99917.44;5010267;28;20057;-70
2022/08/15 08:50:52;;;;;;;;;;;;;;;33.86;27.60;99923.63;5011832;28;20077;-70
2022/08/15 08:53:36;;;;;;;8.68;6.55;;;;;;;35.31;26.05;99914.72;5011175;28;20340;-70
2022/08/15 08:56:21;;;;;;;7.22;6.53;;;;;;;36.16;24.79;99916.69;5010131;28;20038;-70
2022/08/15 08:59:22;;;;;;;9.40;7.40;;;;;;;35.90;25.22;99906.69;5010738;28;20452;-70
2022/08/15 09:02:12;;;;;;;12.80;6.10;;;;;;;36.73;23.45;99917.53;5011498;28;20046;-70
2022/08/15 09:04:50;;;;;;;13.45;6.40;;;;;;;36.66;23.50;99911.75;5010926;28;20050;-70
2022/08/15 09:07:30;;;;;;;9.73;6.03;;;;;;;36.89;22.71;99918.41;5011127;28;20077;-70
2022/08/15 09:10:06;;;;;;;7.45;5.70;;;;;;;36.51;23.00;99904.94;5011490;28;20415;-70
2022/08/15 09:15:30;;;;;;;12.77;5.93;;;;;;;35.73;24.12;99904.16;5010162;28;20050;-70
2022/08/15 09:18:18;;;;;;;7.15;5.68;;;;;;;36.02;23.92;99900.28;5011311;28;20119;-71
2022/08/15 09:20:46;;;;;;;9.70;5.85;;;;;;;32.89;27.55;99904.84;4999737;28;20045;-70
2022/08/15 09:23:20;;;;;;;8.40;5.63;;;;;;;35.24;24.86;99892.97;5010919;28;20046;-69
2022/08/15 09:26:00;;;;;;;12.50;6.60;;;;;;;36.13;24.12;99892.25;5009339;28;20131;-69
2022/08/15 09:28:37;;;;;;;11.20;6.57;;;;;;;36.36;23.90;99892.56;5010708;28;20073;-69
2022/08/15 09:31:14;;;;;;;8.52;6.13;;;;;;;35.82;23.85;99896.50;5010589;28;20256;-69
2022/08/15 09:33:43;;;;;;;11.27;7.07;;;;;;;35.26;24.91;99882.31;5006962;28;20076;-69
2022/08/15 09:36:26;;;;;;;13.82;6.72;;;;;;;35.43;25.06;99892.44;5010141;28;20042;-69
2022/08/15 09:39:05;;;;;;;9.25;6.95;;;;;;;36.05;23.78;99882.03;5012150;28;20093;-69
2022/08/15 09:42:09;;;;;;;21.15;7.38;;;;;;;35.11;25.17;99883.78;5010094;28;20125;-69
2022/08/15 09:45:17;;;;;;;10.50;7.22;;;;;;;36.30;23.79;99883.59;5013724;28;20054;-70
2022/08/15 09:47:48;;;;;;;12.50;6.13;;;;;;;36.25;23.55;99886.63;5014206;28;20391;-70
2022/08/15 09:50:30;;;;;;;12.73;6.65;;;;;;;36.51;23.30;99882.59;5014620;28;20137;-70
2022/08/15 09:53:19;;;;;;;14.25;7.03;;;;;;;36.26;23.74;99885.47;5014146;28;20042;-70
2022/08/15 09:55:48;;;;;;;8.32;6.50;;;;;;;35.37;24.60;99875.09;5014818;28;20128;-69
2022/08/15 09:58:27;;;;;;;12.13;6.85;;;;;;;36.19;24.09;99876.91;5011325;28;20069;-69
2022/08/15 10:01:15;;;;;;;13.00;7.97;;;;;;;36.31;24.01;99876.03;5014203;28;20042;-69
2022/08/15 10:03:45;;;;;;;12.68;7.40;;;;;;;35.75;24.52;99868.38;5013847;28;20057;-69
2022/08/15 10:06:30;;;;;;;11.35;7.63;;;;;;;35.74;24.26;99868.72;5013279;28;20401;-71
2022/08/15 10:09:14;;;;;;;7.47;6.60;;;;;;;36.42;23.10;99874.34;5014081;28;20042;-71
2022/08/15 10:11:41;;;;;;;13.88;6.70;;;;;;;36.80;22.49;99861.84;5014214;28;20042;-71
2022/08/15 10:14:39;;;;;;;7.53;6.60;;;;;;;36.49;23.17;99857.78;5013100;28;20115;-70
2022/08/15 10:17:40;;;;;;;11.48;6.97;;;;;;;35.27;24.55;99850.47;4993925;28;20080;-70
2022/08/15 10:20:28;;;;;;;14.35;7.38;;;;;;;34.86;25.25;99854.22;4946816;28;20053;-71
2022/08/15 10:23:01;;;;;;;10.93;7.00;;;;;;;35.32;24.46;99850.25;4993855;28;20076;-70
2022/08/15 10:25:35;;;;;;;44.22;9.25;;;;;;;35.72;23.97;99852.31;4993562;28;20534;-70
2022/08/15 10:28:05;;;;;;;20.67;5.72;;;;;;;35.60;24.04;99841.97;4993819;28;20070;-70
2022/08/15 10:30:58;;;;;;;10.57;6.65;;;;;;;33.01;27.46;99849.47;4994367;28;20046;-70
2022/08/15 10:33:31;;;;;;;11.68;6.53;;;;;;;31.52;30.09;99844.25;4986254;28;20046;-70
2022/08/15 10:36:14;;;;;;;13.68;6.63;;;;;;;30.01;31.99;99843.13;4994222;28;20501;-70
2022/08/15 10:39:31;;;;;;;15.10;6.68;;;;;;;31.04;30.74;99836.72;4993499;28;20050;-70
2022/08/15 10:42:22;;;;;;;9.10;7.13;;;;;;;31.14;30.11;99833.66;4993704;28;20042;-70
2022/08/15 10:44:53;;;;;;;9.23;6.65;;;;;;;31.80;29.70;99839.25;4993405;28;20049;-69
2022/08/15 10:47:38;;;;;;;9.98;6.47;;;;;;;31.83;29.25;99837.78;4993137;28;20077;-69
2022/08/15 10:51:02;;;;;;;9.93;6.40;;;;;;;31.57;28.71;99829.41;4977424;28;20048;-71
2022/08/15 10:53:50;;;;;;;9.10;6.00;;;;;;;31.89;28.31;99828.16;4993711;28;20057;-70
2022/08/15 10:56:24;;;;;;;11.65;6.53;;;;;;;32.06;28.29;99825.44;4993535;28;20461;-70
2022/08/15 10:59:15;;;;;;;10.25;6.63;;;;;;;32.42;27.78;99832.56;4993989;28;20050;-69
2022/08/15 11:01:44;;;;;;;10.82;6.70;;;;;;;30.51;30.59;99832.00;4993065;28;20101;-70
2022/08/15 11:04:36;;;;;;;13.93;7.00;;;;;;;30.84;30.63;99828.94;4989760;28;20137;-70
2022/08/15 11:07:28;;;;;;;9.57;8.27;;;;;;;31.49;29.88;99822.69;4991995;28;20046;-70
2022/08/15 11:10:00;;;;;;;11.27;7.20;;;;;;;31.46;29.96;99828.88;4992490;28;20046;-70
2022/08/15 11:12:33;;;;;;;9.82;7.70;;;;;;;29.92;32.67;99818.16;4993380;28;20062;-70
2022/08/15 11:15:21;;;;;;;12.10;8.25;;;;;;;30.31;32.34;99825.81;4997417;28;20104;-70
2022/08/15 11:18:00;;;;;;;11.77;7.35;;;;;;;30.25;32.39;99813.22;5012098;28;20045;-70
2022/08/15 11:20:52;;;;;;;13.40;8.20;;;;;;;30.25;32.46;99818.75;5012737;28;20057;-70
2022/08/15 11:23:39;;;;;;;11.38;7.55;;;;;;;30.49;32.03;99814.88;5011961;28;20050;-70
2022/08/15 11:26:10;;;;;;;11.90;8.80;;;;;;;30.34;32.15;99816.06;5012807;28;20041;-70
2022/08/15 11:29:07;;;;;;;13.00;8.27;;;;;;;29.10;33.88;99808.81;5013075;28;20068;-71
2022/08/15 11:31:48;;;;;;;20.35;8.77;;;;;;;29.75;33.20;99810.53;5012322;28;20042;-71
2022/08/15 11:34:32;;;;;;;17.67;8.38;;;;;;;29.66;33.33;99811.56;5012675;28;20050;-71
2022/08/15 11:37:11;;;;;;;26.35;8.32;;;;;;;29.69;33.08;99805.41;5005187;28;20058;-71
2022/08/15 11:39:54;;;;;;;15.23;7.90;;;;;;;29.68;33.13;99809.31;5011565;28;20053;-70
2022/08/15 11:42:24;;;;;;;23.03;8.37;;;;;;;30.39;31.83;99807.63;5011918;28;20120;-71
2022/08/15 11:45:11;;;;;;;12.27;8.20;;;;;;;30.54;31.29;99798.97;5011964;28;20129;-69
2022/08/15 11:47:47;;;;;;;11.25;7.95;;;;;;;28.99;33.57;99790.00;5011234;28;20084;-70
2022/08/15 11:50:37;;;;;;;10.10;7.90;;;;;;;29.11;33.88;99795.81;4994767;28;20046;-71
2022/08/15 11:53:08;;;;;;;22.92;8.95;;;;;;;29.03;33.87;99791.84;5012481;28;20046;-71
2022/08/15 11:55:35;;;;;;;21.00;8.07;;;;;;;29.38;33.42;99792.22;5011581;28;20053;-71
2022/08/15 11:58:13;;;;;;;12.27;9.20;;;;;;;29.27;33.50;99788.88;5011897;28;20508;-71
2022/08/15 12:00:49;;;;;;;33.03;9.02;;;;;;;29.19;33.54;99789.59;5011358;28;20489;-70
2022/08/15 12:03:27;;;;;;;15.77;8.18;;;;;;;29.13;33.38;99797.16;5012240;28;20387;-73
2022/08/15 12:06:14;;;;;;;55.03;10.25;;;;;;;29.21;33.31;99794.81;5005620;28;20060;-70
2022/08/15 12:09:26;;;;;;;28.35;9.48;;;;;;;28.46;34.62;99788.47;5012209;28;20049;-70
2022/08/15 12:12:23;;;;;;;13.38;7.43;;;;;;;28.75;34.00;99790.97;5010879;28;20046;-70
2022/08/15 12:14:56;;;;;;;8.23;7.43;;;;;;;28.60;34.14;99791.28;5010532;28;20054;-69
2022/08/15 12:17:29;;;;;;;12.57;7.90;;;;;;;28.41;34.33;99788.50;5011799;28;20054;-70
2022/08/15 12:20:33;;;;;;;12.40;7.80;;;;;;;28.31;35.00;99791.44;5004614;28;20060;-70
2022/08/15 12:23:25;;;;;;;13.18;7.82;;;;;;;27.73;35.73;99778.84;5011589;28;20461;-71
2022/08/15 12:25:55;;;;;;;16.85;8.63;;;;;;;28.15;35.17;99780.69;5011117;28;20038;-69